Time;durP1;ratioP1;P1;durP2;ratioP2;P2;SDS_P1;SDS_P2;PMS_P1;PMS_P2;Temp;Humidity;BMP_temperature;BMP_pressure;BME280_temperature;BME280_humidity;BME280_pressure;Samples;Min_cycle;Max_cycle;Signal;HPM_P1;HPM_P2
2023/06/01 00:01:33;;;;;;;16.52;6.42;;;;;;;16.29;89.09;99953.77;1772106;81;21326;-80
2023/06/01 00:04:40;;;;;;;11.28;6.87;;;;;;;16.31;88.29;99951.62;1772970;81;21303;-80
2023/06/01 00:07:46;;;;;;;12.13;6.65;;;;;;;16.46;86.73;99958.20;1772973;81;21308;-79
2023/06/01 00:10:54;;;;;;;17.87;6.97;;;;;;;16.58;85.34;99955.05;1772984;81;22684;-80
2023/06/01 00:14:00;;;;;;;20.30;6.58;;;;;;;16.39;85.13;99962.41;1773015;81;21307;-80
2023/06/01 00:17:09;;;;;;;14.18;5.90;;;;;;;16.22;85.72;99960.69;1772844;81;21307;-82
2023/06/01 00:20:16;;;;;;;15.48;5.87;;;;;;;16.24;85.65;99960.49;1771601;81;21877;-82
2023/06/01 00:23:22;;;;;;;19.20;6.58;;;;;;;16.39;85.06;99958.27;1772838;81;21303;-82
2023/06/01 00:26:33;;;;;;;24.90;6.92;;;;;;;16.21;85.11;99949.89;1772538;81;21331;-82
2023/06/01 00:29:38;;;;;;;13.25;6.20;;;;;;;16.15;84.88;99946.64;1772143;81;21351;-82
2023/06/01 00:32:44;;;;;;;13.00;6.37;;;;;;;16.30;83.92;99945.80;1772593;81;21311;-80
2023/06/01 00:35:50;;;;;;;16.62;6.58;;;;;;;16.31;83.48;99955.77;1772604;81;21202;-81
2023/06/01 00:39:01;;;;;;;17.05;6.53;;;;;;;16.33;82.92;99955.02;1772734;81;21881;-80
2023/06/01 00:42:02;;;;;;;13.45;5.87;;;;;;;16.46;82.17;99959.05;1772594;81;21335;-80
2023/06/01 00:45:07;;;;;;;20.37;7.17;;;;;;;16.46;82.23;99955.44;1773204;81;21347;-80
2023/06/01 00:48:14;;;;;;;13.08;6.47;;;;;;;16.60;81.67;99956.50;1773056;80;22654;-80
2023/06/01 00:51:21;;;;;;;15.28;7.00;;;;;;;16.62;81.31;99954.91;1772336;81;21308;-81
2023/06/01 00:54:27;;;;;;;23.65;7.55;;;;;;;16.62;81.24;99957.67;1770941;81;21288;-81
2023/06/01 00:57:33;;;;;;;26.27;7.15;;;;;;;16.55;81.43;99954.94;1771529;81;21343;-80
2023/06/01 01:00:40;;;;;;;19.23;7.65;;;;;;;16.47;81.73;99966.28;1771397;81;21398;-80
2023/06/01 01:03:46;;;;;;;14.63;6.85;;;;;;;16.39;81.77;99958.27;1772281;81;21315;-80
2023/06/01 01:07:03;;;;;;;28.38;7.45;;;;;;;16.33;81.92;99961.39;1772058;81;21846;-80
2023/06/01 01:10:25;;;;;;;20.88;7.70;;;;;;;16.28;82.04;99971.41;1771735;81;21336;-80
2023/06/01 01:13:52;;;;;;;13.98;7.12;;;;;;;16.25;82.20;99971.84;1771088;81;21347;-80
2023/06/01 01:17:25;;;;;;;13.85;7.03;;;;;;;16.13;82.49;99970.30;1772287;81;21296;-80
2023/06/01 01:20:33;;;;;;;17.50;7.17;;;;;;;16.09;82.72;99975.44;1770951;81;21323;-81
2023/06/01 01:24:02;;;;;;;14.45;7.35;;;;;;;16.15;82.77;99977.00;1772266;81;21929;-80
2023/06/01 01:27:29;;;;;;;16.55;6.85;;;;;;;16.24;82.25;99986.17;1772132;81;21358;-80
2023/06/01 01:30:31;;;;;;;22.32;7.03;;;;;;;15.99;83.27;99977.80;1771647;81;21346;-80
2023/06/01 01:33:38;;;;;;;10.05;6.58;;;;;;;15.90;83.50;99979.11;1772307;81;21308;-80
2023/06/01 01:36:45;;;;;;;13.80;7.10;;;;;;;15.77;84.49;99973.67;1772337;81;21299;-80
2023/06/01 01:39:51;;;;;;;18.95;6.87;;;;;;;15.92;84.26;99974.23;1772192;81;21340;-80
2023/06/01 01:42:56;;;;;;;15.98;7.20;;;;;;;15.93;84.22;99982.81;1771773;81;22527;-81
2023/06/01 01:46:16;;;;;;;16.23;6.53;;;;;;;15.89;84.78;99986.23;1772322;81;21331;-81
2023/06/01 01:49:29;;;;;;;12.90;7.00;;;;;;;15.77;85.63;99980.56;1777060;80;21318;-81
2023/06/01 01:52:46;;;;;;;19.45;6.80;;;;;;;15.79;86.06;99981.19;1782584;80;21303;-81
2023/06/01 01:55:54;;;;;;;16.85;7.47;;;;;;;15.94;85.96;99983.66;1783890;80;21322;-80
2023/06/01 01:59:00;;;;;;;15.13;5.97;;;;;;;15.85;86.47;99977.55;1784144;80;21296;-79
2023/06/01 02:02:06;;;;;;;14.35;6.17;;;;;;;16.02;86.39;99982.04;1782540;80;21378;-80
2023/06/01 02:05:12;;;;;;;19.42;5.55;;;;;;;16.10;86.59;99983.17;1782175;80;21378;-80
2023/06/01 02:08:18;;;;;;;12.50;5.87;;;;;;;16.24;86.76;99987.55;1783581;80;21886;-79
2023/06/01 02:11:24;;;;;;;15.23;5.92;;;;;;;16.24;87.04;99986.70;1782143;80;21372;-79
2023/06/01 02:14:31;;;;;;;13.45;4.95;;;;;;;16.43;86.53;99989.88;1782125;80;21774;-80
2023/06/01 02:17:37;;;;;;;12.43;5.50;;;;;;;16.49;85.86;99993.12;1782046;80;21374;-80
2023/06/01 02:20:43;;;;;;;10.20;5.10;;;;;;;16.26;86.71;99986.78;1783352;80;21308;-80
2023/06/01 02:23:50;;;;;;;11.70;4.37;;;;;;;16.43;86.97;99988.50;1783704;80;21302;-80
2023/06/01 02:26:55;;;;;;;9.38;4.50;;;;;;;16.67;86.45;99995.13;1783704;80;21322;-81
2023/06/01 02:30:01;;;;;;;9.38;4.78;;;;;;;16.88;85.36;99985.63;1783644;80;21291;-81
2023/06/01 02:33:07;;;;;;;16.02;4.55;;;;;;;17.15;83.92;99988.16;1783524;80;21331;-81
2023/06/01 02:36:15;;;;;;;12.82;4.30;;;;;;;17.35;82.49;99990.19;1783463;80;21303;-81
2023/06/01 02:39:21;;;;;;;10.13;4.83;;;;;;;17.39;80.94;99987.28;1783496;80;21303;-81
2023/06/01 02:42:26;;;;;;;7.00;4.03;;;;;;;17.53;80.31;99983.30;1782384;80;21299;-80
2023/06/01 02:45:33;;;;;;;14.90;5.55;;;;;;;17.73;79.62;99979.45;1783489;80;21339;-80
2023/06/01 02:48:41;;;;;;;8.23;3.95;;;;;;;18.11;78.40;99988.38;1783291;80;21327;-81
2023/06/01 02:51:48;;;;;;;10.35;4.20;;;;;;;18.39;76.61;99987.74;1757328;81;21974;-80
2023/06/01 02:54:54;;;;;;;14.00;4.33;;;;;;;18.52;74.66;99987.25;1757950;81;21339;-80
2023/06/01 02:58:17;;;;;;;8.15;3.55;;;;;;;18.56;74.66;99987.09;1692619;83;22445;-80
2023/06/01 03:01:24;;;;;;;6.83;3.98;;;;;;;18.71;73.42;99988.06;1754823;80;21339;-81
2023/06/01 03:04:32;;;;;;;13.65;4.30;;;;;;;18.95;71.99;99987.02;1756955;81;21340;-81
2023/06/01 03:07:38;;;;;;;5.00;3.27;;;;;;;19.03;71.54;99993.59;1757792;81;21344;-81
2023/06/01 03:10:46;;;;;;;8.65;3.90;;;;;;;19.30;69.91;99993.98;1757752;81;21328;-80
2023/06/01 03:13:56;;;;;;;10.48;3.70;;;;;;;19.56;68.42;99995.95;1757952;81;21878;-80
2023/06/01 03:17:03;;;;;;;12.00;3.65;;;;;;;19.55;67.97;99997.04;1757935;81;21870;-80
2023/06/01 03:20:14;;;;;;;11.90;3.98;;;;;;;19.46;68.44;99993.78;1757003;81;21339;-80
2023/06/01 03:23:16;;;;;;;13.20;3.47;;;;;;;19.46;67.61;99994.33;1756669;81;21320;-80
2023/06/01 03:26:21;;;;;;;10.53;3.10;;;;;;;19.32;67.72;99997.89;1757893;81;21798;-80
2023/06/01 03:29:26;;;;;;;11.73;3.90;;;;;;;19.39;67.61;100003.63;1757906;81;21336;-80
2023/06/01 03:32:33;;;;;;;5.03;3.22;;;;;;;19.41;67.15;100001.44;1757231;81;21914;-80
2023/06/01 03:35:40;;;;;;;7.45;3.33;;;;;;;19.45;67.08;100003.75;1756892;81;21360;-80
2023/06/01 03:38:46;;;;;;;15.85;3.52;;;;;;;19.49;67.12;100015.50;1758051;81;21324;-80
2023/06/01 03:41:52;;;;;;;8.28;3.35;;;;;;;19.57;66.07;100017.05;1757497;81;21309;-81
2023/06/01 03:44:59;;;;;;;14.38;2.85;;;;;;;19.76;66.09;100017.78;1757804;81;21332;-81
2023/06/01 03:48:05;;;;;;;6.05;3.00;;;;;;;20.10;65.52;100026.59;1757871;81;21300;-81
2023/06/01 03:51:12;;;;;;;7.50;2.95;;;;;;;20.38;63.37;100020.77;1762777;80;21335;-81
2023/06/01 03:54:18;;;;;;;8.18;2.90;;;;;;;20.38;61.22;100028.55;1772911;81;21311;-81
2023/06/01 03:57:24;;;;;;;6.08;3.10;;;;;;;20.09;61.35;100023.53;1773302;81;21303;-81
2023/06/01 04:00:30;;;;;;;5.30;2.65;;;;;;;19.62;63.40;100021.38;1772785;81;21327;-81
2023/06/01 04:03:39;;;;;;;9.43;3.30;;;;;;;19.49;63.15;100018.27;1771984;81;21319;-81
2023/06/01 04:06:45;;;;;;;7.80;3.30;;;;;;;19.22;63.63;100019.28;1773161;81;21300;-81
2023/06/01 04:09:51;;;;;;;7.28;2.80;;;;;;;19.05;64.37;100028.84;1772983;81;21311;-81
2023/06/01 04:12:57;;;;;;;4.58;2.37;;;;;;;19.08;65.17;100029.76;1772497;81;21343;-81
2023/06/01 04:16:02;;;;;;;5.90;2.77;;;;;;;19.17;64.98;100032.19;1773063;81;21285;-81
2023/06/01 04:19:08;;;;;;;13.68;3.05;;;;;;;19.33;64.64;100025.91;1773124;81;22568;-80
2023/06/01 04:22:16;;;;;;;11.00;3.17;;;;;;;19.54;63.22;100024.48;1773051;81;21307;-81
2023/06/01 04:25:24;;;;;;;8.73;2.55;;;;;;;19.60;62.62;100024.92;1772734;81;21350;-81
2023/06/01 04:28:30;;;;;;;7.95;2.72;;;;;;;19.91;62.16;100023.69;1771609;81;21307;-81
2023/06/01 04:31:36;;;;;;;12.07;3.55;;;;;;;19.84;61.88;100028.52;1773181;81;21899;-80
2023/06/01 04:34:42;;;;;;;4.72;2.30;;;;;;;19.75;61.20;100034.13;1773080;81;21316;-80
2023/06/01 04:37:43;;;;;;;6.10;2.62;;;;;;;19.72;61.02;100024.38;1773266;81;21873;-80
2023/06/01 04:40:53;;;;;;;3.65;2.22;;;;;;;19.58;61.43;100018.21;1772343;81;21335;-80
2023/06/01 04:43:58;;;;;;;6.08;2.60;;;;;;;19.68;60.88;100027.89;1771566;81;21355;-81
2023/06/01 04:47:05;;;;;;;5.87;2.50;;;;;;;19.67;61.64;100035.37;1773627;81;21315;-81
2023/06/01 04:50:16;;;;;;;4.42;2.65;;;;;;;19.73;62.00;100032.16;1773220;81;21300;-80
2023/06/01 04:53:22;;;;;;;9.75;2.87;;;;;;;19.84;62.60;100038.23;1780882;80;21371;-80
2023/06/01 04:56:28;;;;;;;4.87;2.45;;;;;;;19.93;60.38;100037.31;1782702;80;21335;-81
2023/06/01 04:59:33;;;;;;;6.92;2.52;;;;;;;20.01;61.48;100038.33;1782078;80;21881;-80
2023/06/01 05:02:38;;;;;;;4.92;2.12;;;;;;;20.11;60.36;100035.22;1782592;80;21334;-80
2023/06/01 05:05:44;;;;;;;4.50;2.50;;;;;;;20.31;58.98;100043.66;1782145;80;21379;-80
2023/06/01 05:08:51;;;;;;;6.40;2.65;;;;;;;20.31;58.04;100047.83;1781618;80;21314;-80
2023/06/01 05:11:57;;;;;;;11.03;2.55;;;;;;;20.23;57.46;100046.30;1781762;80;21347;-80
2023/06/01 05:15:02;;;;;;;4.47;2.22;;;;;;;20.45;56.38;100045.61;1781405;80;21354;-80
2023/06/01 05:18:08;;;;;;;9.90;2.60;;;;;;;20.29;56.86;100054.19;1782302;80;21343;-79
2023/06/01 05:21:14;;;;;;;6.08;2.33;;;;;;;20.27;56.71;100049.41;1799542;79;21295;-80
2023/06/01 05:24:20;;;;;;;4.87;2.50;;;;;;;20.23;57.37;100050.47;1798272;79;21343;-80
2023/06/01 05:27:25;;;;;;;6.75;2.35;;;;;;;20.36;57.54;100059.05;1798014;79;21327;-81
2023/06/01 05:30:30;;;;;;;11.00;2.40;;;;;;;20.58;56.41;100067.03;1799698;79;21307;-80
2023/06/01 05:33:36;;;;;;;4.55;2.50;;;;;;;20.71;57.31;100059.50;1764712;81;21937;-80
2023/06/01 05:36:42;;;;;;;7.42;2.50;;;;;;;20.85;55.85;100068.66;1738012;82;21286;-80
2023/06/01 05:39:48;;;;;;;6.60;2.40;;;;;;;20.86;55.30;100063.95;1765270;81;21303;-80
2023/06/01 05:42:54;;;;;;;9.35;2.20;;;;;;;20.80;56.55;100074.13;1738358;82;21307;-80
2023/06/01 05:45:59;;;;;;;8.50;2.60;;;;;;;20.91;55.18;100077.38;1735280;82;21894;-81
2023/06/01 05:49:04;;;;;;;10.28;2.35;;;;;;;20.70;56.67;100078.08;1708726;84;21309;-82
2023/06/01 05:52:13;;;;;;;8.98;2.70;;;;;;;20.72;55.99;100076.46;1754749;81;21334;-81
2023/06/01 05:55:19;;;;;;;5.78;2.40;;;;;;;20.94;55.02;100077.45;1710345;84;21359;-82
2023/06/01 05:58:25;;;;;;;5.55;2.20;;;;;;;20.87;55.28;100072.57;1748817;81;21857;-82
2023/06/01 06:01:32;;;;;;;3.70;2.08;;;;;;;20.95;56.45;100074.11;1767088;81;21355;-82
2023/06/01 06:04:39;;;;;;;7.20;2.35;;;;;;;21.04;56.29;100078.17;1764457;81;21340;-82
2023/06/01 06:07:45;;;;;;;5.28;2.20;;;;;;;21.28;54.31;100078.31;1766598;81;21276;-82
2023/06/01 06:10:50;;;;;;;4.60;1.92;;;;;;;21.28;55.32;100074.69;1739928;81;21356;-82
2023/06/01 06:13:56;;;;;;;5.78;2.47;;;;;;;21.22;53.79;100070.98;1765942;81;21338;-82
2023/06/01 06:17:02;;;;;;;6.47;1.95;;;;;;;21.16;54.46;100080.31;1765944;81;21863;-81
2023/06/01 06:20:08;;;;;;;4.85;2.35;;;;;;;21.25;54.01;100066.84;1765590;81;21333;-81
2023/06/01 06:23:13;;;;;;;7.47;2.20;;;;;;;21.05;56.07;100070.96;1761904;81;21757;-82
2023/06/01 06:26:19;;;;;;;5.95;2.22;;;;;;;21.04;57.33;100073.45;1761047;81;21318;-79
2023/06/01 06:29:24;;;;;;;4.33;2.40;;;;;;;21.36;56.93;100070.11;1745129;82;21854;-79
2023/06/01 06:32:31;;;;;;;8.28;2.85;;;;;;;21.56;57.04;100065.44;1761014;81;21274;-80
2023/06/01 06:35:38;;;;;;;6.85;2.50;;;;;;;21.80;55.51;100065.53;1744636;82;21335;-80
2023/06/01 06:38:45;;;;;;;7.05;2.05;;;;;;;21.91;54.09;100065.95;1747077;82;21283;-80
2023/06/01 06:41:50;;;;;;;9.28;2.72;;;;;;;22.03;52.68;100074.20;1760042;81;21346;-82
2023/06/01 06:44:57;;;;;;;3.83;2.25;;;;;;;21.99;53.45;100072.20;1752922;81;21925;-82
2023/06/01 06:48:05;;;;;;;11.80;2.42;;;;;;;22.15;51.31;100072.71;1753099;82;21307;-82
2023/06/01 06:51:10;;;;;;;4.97;2.55;;;;;;;22.18;50.71;100077.22;1728549;81;21300;-80
2023/06/01 06:54:17;;;;;;;11.33;2.08;;;;;;;22.22;51.30;100071.15;1741027;81;21358;-80
2023/06/01 06:57:24;;;;;;;6.40;2.45;;;;;;;22.37;52.91;100064.37;1745107;82;21329;-80
2023/06/01 07:00:31;;;;;;;9.23;2.30;;;;;;;22.45;51.69;100066.70;1802662;79;21330;-80
2023/06/01 07:03:38;;;;;;;8.70;2.35;;;;;;;22.54;51.89;100077.69;1765080;81;21283;-80
2023/06/01 07:06:44;;;;;;;8.13;2.33;;;;;;;22.70;48.45;100070.33;1729496;82;21313;-80
2023/06/01 07:09:52;;;;;;;4.80;2.30;;;;;;;22.71;49.03;100074.23;1762195;81;21280;-80
2023/06/01 07:12:58;;;;;;;7.20;2.37;;;;;;;22.88;48.20;100078.88;1753058;81;21303;-79
2023/06/01 07:16:05;;;;;;;10.08;2.25;;;;;;;22.76;47.96;100081.81;1764560;81;21354;-80
2023/06/01 07:19:10;;;;;;;9.43;2.52;;;;;;;22.67;47.34;100087.01;1765885;81;21889;-80
2023/06/01 07:22:17;;;;;;;3.62;2.05;;;;;;;22.79;48.43;100081.30;1764731;81;21327;-80
2023/06/01 07:25:23;;;;;;;7.22;2.22;;;;;;;23.12;48.35;100078.03;1764492;80;21355;-80
2023/06/01 07:28:30;;;;;;;14.20;2.42;;;;;;;23.15;46.86;100083.94;1796018;80;21875;-81
2023/06/01 07:31:36;;;;;;;11.63;2.55;;;;;;;23.20;46.88;100095.14;1796429;80;21886;-81
2023/06/01 07:34:43;;;;;;;5.33;2.10;;;;;;;23.08;46.81;100100.59;1796504;80;21370;-80
2023/06/01 07:37:49;;;;;;;5.55;2.10;;;;;;;23.06;46.87;100085.52;1795336;80;21343;-80
2023/06/01 07:40:54;;;;;;;8.43;2.60;;;;;;;23.32;48.48;100087.14;1797368;80;21304;-81
2023/06/01 07:44:01;;;;;;;6.87;2.75;;;;;;;23.60;47.07;100085.97;1797382;80;21929;-81
2023/06/01 07:47:07;;;;;;;4.80;2.10;;;;;;;23.70;47.38;100084.11;1795908;80;21304;-81
2023/06/01 07:50:14;;;;;;;8.40;2.02;;;;;;;23.89;47.88;100085.08;1795811;80;21308;-81
2023/06/01 07:53:20;;;;;;;4.53;1.85;;;;;;;24.02;45.66;100093.55;1797093;80;21887;-81
2023/06/01 07:56:26;;;;;;;11.38;2.20;;;;;;;24.14;45.30;100092.23;1776608;80;21325;-81
2023/06/01 07:59:31;;;;;;;3.70;2.00;;;;;;;23.99;46.16;100082.34;1745506;82;21312;-81
2023/06/01 08:02:37;;;;;;;5.15;2.55;;;;;;;24.14;45.84;100085.25;1765856;81;21861;-81
2023/06/01 08:05:44;;;;;;;8.15;1.90;;;;;;;24.18;46.43;100073.81;1809878;78;21869;-80
2023/06/01 08:08:51;;;;;;;5.67;2.30;;;;;;;24.22;45.08;100076.88;1798710;79;21892;-81
2023/06/01 08:11:57;;;;;;;9.38;2.33;;;;;;;24.11;45.92;100077.39;1796995;78;21294;-81
2023/06/01 08:15:03;;;;;;;4.50;1.85;;;;;;;24.04;46.49;100075.39;1799375;79;21279;-81
2023/06/01 08:18:09;;;;;;;9.13;2.20;;;;;;;24.07;45.85;100078.20;1800410;79;21275;-81
2023/06/01 08:21:17;;;;;;;4.05;1.90;;;;;;;23.94;44.98;100076.73;1798996;78;21300;-81
2023/06/01 08:24:24;;;;;;;10.50;1.90;;;;;;;23.92;44.52;100063.60;1797300;79;21294;-81
2023/06/01 08:27:31;;;;;;;10.93;1.70;;;;;;;23.89;44.47;100066.92;1802653;78;21913;-81
2023/06/01 08:30:37;;;;;;;9.45;2.00;;;;;;;23.91;44.23;100066.95;1790354;78;21252;-82
2023/06/01 08:33:45;;;;;;;5.50;1.85;;;;;;;24.07;44.84;100069.27;1799821;78;21265;-82
2023/06/01 08:36:50;;;;;;;6.47;1.82;;;;;;;24.15;45.27;100053.39;1797367;78;21296;-82
2023/06/01 08:39:56;;;;;;;5.40;2.20;;;;;;;24.14;44.45;100060.09;1792725;78;21307;-82
2023/06/01 08:43:24;;;;;;;5.58;2.10;;;;;;;24.14;42.62;100069.88;1767202;81;21343;-82
2023/06/01 08:46:23;;;;;;;3.72;1.60;;;;;;;24.00;42.94;100061.70;1767160;81;21334;-82
2023/06/01 08:49:30;;;;;;;4.25;1.42;;;;;;;23.99;43.11;100053.02;1792571;78;21374;-82
2023/06/01 08:52:36;;;;;;;7.22;1.90;;;;;;;24.00;43.17;100059.47;1773703;81;21310;-82
2023/06/01 08:55:42;;;;;;;11.05;1.80;;;;;;;24.02;41.03;100052.48;1777405;78;21326;-82
2023/06/01 08:58:48;;;;;;;4.75;1.80;;;;;;;24.27;41.64;100061.53;1800571;79;21346;-82
2023/06/01 09:01:55;;;;;;;2.85;1.50;;;;;;;24.27;40.13;100060.70;1816012;77;21338;-82
2023/06/01 09:05:01;;;;;;;3.58;1.87;;;;;;;24.12;41.10;100073.48;1813689;77;21279;-82
2023/06/01 09:08:06;;;;;;;3.85;1.20;;;;;;;23.90;39.63;100059.70;1804909;77;22287;-82
2023/06/01 09:11:12;;;;;;;4.15;2.10;;;;;;;24.05;40.31;100068.71;1803767;77;21317;-81
2023/06/01 09:14:30;;;;;;;4.50;1.70;;;;;;;23.91;40.43;100052.16;1810013;79;21342;-81
2023/06/01 09:17:37;;;;;;;6.30;1.60;;;;;;;23.80;39.18;100062.95;1806155;77;21338;-81
2023/06/01 09:20:44;;;;;;;7.28;1.62;;;;;;;24.48;39.75;100070.89;1783699;79;21205;-81
2023/06/01 09:23:50;;;;;;;3.65;1.75;;;;;;;24.26;38.87;100061.25;1777957;80;21883;-81
2023/06/01 09:27:03;;;;;;;3.92;1.82;;;;;;;24.31;37.87;100052.89;1744086;82;21318;-83
2023/06/01 09:30:05;;;;;;;8.43;1.77;;;;;;;24.26;39.76;100050.08;1744921;82;21310;-83
2023/06/01 09:33:23;;;;;;;13.38;2.15;;;;;;;24.44;39.40;100058.57;1736660;82;21304;-83
2023/06/01 09:36:32;;;;;;;7.37;2.00;;;;;;;24.38;39.14;100056.88;1734236;80;21348;-83
2023/06/01 09:39:40;;;;;;;3.92;1.60;;;;;;;24.36;39.42;100052.07;1735084;82;21286;-83
2023/06/01 09:42:49;;;;;;;5.35;1.72;;;;;;;24.34;39.21;100047.33;1734213;82;21310;-82
2023/06/01 09:46:00;;;;;;;2.98;1.47;;;;;;;24.43;38.04;100044.31;1744341;80;21323;-81
2023/06/01 09:49:13;;;;;;;1.82;1.37;;;;;;;24.33;38.31;100052.64;1718430;82;21365;-81
2023/06/01 09:52:21;;;;;;;3.75;1.52;;;;;;;24.32;37.90;100045.34;1745823;80;21286;-80
2023/06/01 09:55:27;;;;;;;4.70;2.10;;;;;;;24.42;38.80;100042.64;1744663;80;21266;-82
2023/06/01 09:58:34;;;;;;;2.12;1.55;;;;;;;24.31;38.31;100045.06;1723357;82;22541;-82
2023/06/01 10:01:39;;;;;;;6.78;1.65;;;;;;;24.26;38.21;100042.25;1736224;81;21393;-82
2023/06/01 10:04:47;;;;;;;6.72;1.82;;;;;;;24.29;38.81;100048.70;1746775;81;21621;-80
2023/06/01 10:07:53;;;;;;;7.80;1.50;;;;;;;24.47;37.68;100039.30;1703577;83;21361;-81
2023/06/01 10:10:58;;;;;;;9.98;2.12;;;;;;;24.53;37.76;100042.95;1744695;81;21329;-82
2023/06/01 10:14:06;;;;;;;8.25;2.37;;;;;;;24.63;39.07;100038.77;1778190;80;21318;-82
2023/06/01 10:17:14;;;;;;;6.08;2.02;;;;;;;24.77;36.72;100042.45;1759372;80;21338;-82
2023/06/01 10:20:20;;;;;;;8.35;1.67;;;;;;;24.70;38.29;100042.16;1780269;80;21299;-82
2023/06/01 10:23:26;;;;;;;6.92;1.72;;;;;;;24.63;37.03;100040.17;1776389;80;21306;-81
2023/06/01 10:26:32;;;;;;;7.15;1.55;;;;;;;24.71;38.78;100041.04;1775098;80;21283;-80
2023/06/01 10:29:38;;;;;;;5.15;1.72;;;;;;;24.86;37.75;100038.83;1780277;80;21748;-80
2023/06/01 10:32:54;;;;;;;6.17;1.92;;;;;;;24.64;37.93;100048.00;1780753;80;21216;-81
2023/06/01 10:36:00;;;;;;;5.97;1.85;;;;;;;24.47;37.08;100033.71;1781730;80;22267;-82
2023/06/01 10:39:35;;;;;;;9.85;2.00;;;;;;;24.58;37.08;100027.58;1771573;79;22718;-81
2023/06/01 10:42:44;;;;;;;2.33;1.60;;;;;;;24.52;38.28;100032.05;1728135;82;21298;-81
2023/06/01 10:45:50;;;;;;;4.08;1.92;;;;;;;24.62;37.56;100030.11;1706432;82;21210;-81
2023/06/01 10:49:05;;;;;;;2.90;1.50;;;;;;;24.66;36.38;100029.84;1718251;83;21878;-81
2023/06/01 10:52:32;;;;;;;3.35;1.52;;;;;;;24.64;38.02;100023.67;1736920;82;21270;-83
2023/06/01 10:55:38;;;;;;;3.05;1.80;;;;;;;24.71;37.84;100016.44;1730994;81;21314;-81
2023/06/01 10:58:45;;;;;;;4.47;1.85;;;;;;;24.77;38.39;100011.13;1771428;79;21295;-81
2023/06/01 11:01:52;;;;;;;4.58;1.65;;;;;;;24.82;37.38;100018.68;1710445;82;21309;-81
2023/06/01 11:04:58;;;;;;;10.78;1.60;;;;;;;24.91;37.67;100011.42;1757010;80;21306;-82
2023/06/01 11:07:56;;;;;;;4.08;1.80;;;;;;;24.99;37.54;100012.27;1753486;80;21848;-81
2023/06/01 11:11:06;;;;;;;4.00;1.55;;;;;;;24.92;36.33;100018.69;1711096;82;21329;-81
2023/06/01 11:14:12;;;;;;;6.08;1.50;;;;;;;24.96;37.38;100011.42;1757142;80;21269;-81
2023/06/01 11:17:24;;;;;;;7.53;1.40;;;;;;;24.96;37.05;100012.82;1758465;80;21648;-81
2023/06/01 11:20:30;;;;;;;6.97;1.67;;;;;;;25.01;37.59;99998.83;1761222;80;21430;-82
2023/06/01 11:23:35;;;;;;;7.10;1.67;;;;;;;24.94;37.05;100001.92;1751744;80;21960;-81
2023/06/01 11:26:51;;;;;;;10.00;2.25;;;;;;;25.03;37.57;100000.81;1761381;80;21309;-82
2023/06/01 11:29:57;;;;;;;5.28;2.35;;;;;;;24.93;36.42;99995.19;1756328;80;21368;-82
2023/06/01 11:33:04;;;;;;;7.08;2.00;;;;;;;25.21;36.65;99996.05;1699804;82;21318;-82
2023/06/01 11:36:10;;;;;;;3.20;1.62;;;;;;;25.22;36.22;99985.73;1733649;80;21324;-82
2023/06/01 11:39:32;;;;;;;6.33;2.20;;;;;;;25.28;35.62;99991.59;1721336;82;21282;-81
2023/06/01 11:42:40;;;;;;;12.82;2.35;;;;;;;25.17;35.70;99990.77;1758510;80;21302;-81
2023/06/01 11:45:46;;;;;;;7.95;2.02;;;;;;;25.08;35.73;99982.66;1757285;80;21294;-81
2023/06/01 11:48:51;;;;;;;4.58;1.57;;;;;;;25.08;36.64;99983.19;1767618;80;21294;-81
2023/06/01 11:51:59;;;;;;;9.13;1.60;;;;;;;25.15;36.36;99985.16;1733801;81;21271;-81
2023/06/01 11:55:11;;;;;;;5.85;1.67;;;;;;;25.20;36.39;99987.38;1714367;83;21263;-81
2023/06/01 11:58:16;;;;;;;4.90;1.82;;;;;;;25.22;36.87;99985.73;1757289;80;21282;-81
2023/06/01 12:01:22;;;;;;;2.95;1.47;;;;;;;25.23;35.57;99982.64;1797493;76;21283;-81
2023/06/01 12:04:30;;;;;;;7.17;2.10;;;;;;;25.22;36.05;99971.17;1813973;78;21334;-81
2023/06/01 12:07:38;;;;;;;2.75;1.70;;;;;;;25.23;35.42;99973.41;1802625;79;21298;-81
2023/06/01 12:10:46;;;;;;;3.67;1.70;;;;;;;25.21;35.61;99974.23;1811617;78;21283;-81
2023/06/01 12:13:52;;;;;;;5.95;2.25;;;;;;;25.18;36.76;99967.81;1818351;78;21319;-81
2023/06/01 12:17:05;;;;;;;8.10;1.87;;;;;;;25.21;36.02;99960.23;1803778;79;21327;-81
2023/06/01 12:20:12;;;;;;;3.17;1.85;;;;;;;25.12;35.89;99960.52;1805056;78;21307;-82
2023/06/01 12:23:24;;;;;;;6.37;1.57;;;;;;;25.22;35.91;99953.55;1793947;78;21917;-80
2023/06/01 12:26:30;;;;;;;4.85;1.75;;;;;;;25.20;36.08;99956.59;1798833;78;21342;-80
2023/06/01 12:29:52;;;;;;;4.40;1.60;;;;;;;25.12;36.65;99956.33;1805633;78;21335;-81
2023/06/01 12:32:57;;;;;;;6.95;1.57;;;;;;;25.22;36.27;99948.78;1753874;80;21267;-81
2023/06/01 12:36:04;;;;;;;4.55;1.70;;;;;;;25.21;35.73;99952.67;1719856;81;21314;-81
2023/06/01 12:39:09;;;;;;;6.40;1.65;;;;;;;25.15;35.16;99944.02;1740273;81;21262;-81
2023/06/01 12:42:16;;;;;;;3.30;1.80;;;;;;;25.13;35.90;99946.84;1732405;81;21318;-81
2023/06/01 12:45:21;;;;;;;5.92;1.85;;;;;;;25.18;35.83;99946.27;1758131;80;21295;-82
2023/06/01 12:48:37;;;;;;;5.47;2.17;;;;;;;25.48;36.05;99941.72;1760111;80;21271;-82
2023/06/01 12:51:30;;;;;;;8.60;2.07;;;;;;;25.46;35.34;99938.38;1758589;80;21302;-82
2023/06/01 12:54:36;;;;;;;17.80;2.40;;;;;;;25.49;35.33;99942.83;1753344;81;21681;-82
2023/06/01 12:57:43;;;;;;;9.78;2.00;;;;;;;25.63;35.16;99941.67;1761473;81;21304;-81
2023/06/01 13:00:49;;;;;;;6.80;2.33;;;;;;;25.63;34.89;99939.44;1739323;81;21314;-81
2023/06/01 13:03:57;;;;;;;2.72;1.70;;;;;;;25.52;34.84;99933.03;1773606;80;21303;-80
2023/06/01 13:07:02;;;;;;;14.35;1.72;;;;;;;25.58;34.62;99938.05;1771689;80;21321;-80
2023/06/01 13:10:08;;;;;;;5.58;1.80;;;;;;;25.67;34.59;99930.17;1780282;80;21319;-81
2023/06/01 13:13:15;;;;;;;6.12;1.72;;;;;;;25.62;35.71;99930.77;1780628;80;21956;-81
2023/06/01 13:16:21;;;;;;;3.98;1.95;;;;;;;25.62;35.83;99935.80;1781890;80;21341;-81
2023/06/01 13:19:27;;;;;;;5.15;2.05;;;;;;;25.62;34.76;99930.20;1780415;80;21298;-80
2023/06/01 13:22:33;;;;;;;8.98;1.75;;;;;;;25.38;34.77;99932.78;1780704;80;21334;-81
2023/06/01 13:25:39;;;;;;;8.78;2.37;;;;;;;25.37;34.64;99937.28;1780548;80;21306;-80
2023/06/01 13:28:45;;;;;;;10.08;2.12;;;;;;;25.33;35.56;99936.16;1782274;80;21345;-80
2023/06/01 13:31:51;;;;;;;10.15;2.40;;;;;;;25.34;34.93;99937.83;1780566;80;21305;-81
2023/06/01 13:34:51;;;;;;;8.63;1.72;;;;;;;25.36;34.67;99929.45;1782183;80;21282;-81
2023/06/01 13:37:58;;;;;;;5.92;2.00;;;;;;;25.39;35.40;99929.42;1780392;80;21984;-81
2023/06/01 13:41:04;;;;;;;10.63;2.02;;;;;;;25.44;35.09;99932.20;1781911;80;21227;-80
2023/06/01 13:44:10;;;;;;;11.20;6.30;;;;;;;25.45;35.71;99928.28;1782607;80;21345;-80
2023/06/01 13:47:16;;;;;;;11.60;3.27;;;;;;;25.47;36.08;99924.65;1783443;80;21321;-80
2023/06/01 13:50:17;;;;;;;3.22;1.92;;;;;;;25.50;36.04;99922.66;1784114;80;21298;-80
2023/06/01 13:53:10;;;;;;;3.85;2.02;;;;;;;25.53;36.12;99921.27;1784219;80;21326;-80
2023/06/01 13:56:15;;;;;;;7.22;1.80;;;;;;;25.43;36.96;99921.58;1785002;80;21326;-80
2023/06/01 13:59:20;;;;;;;6.65;2.42;;;;;;;25.36;35.66;99924.37;1783550;80;21310;-80
2023/06/01 14:02:25;;;;;;;8.28;2.27;;;;;;;25.33;35.45;99921.60;1779911;79;21869;-80
2023/06/01 14:05:31;;;;;;;6.25;1.80;;;;;;;25.09;35.83;99924.16;1774235;81;21522;-80
2023/06/01 14:08:39;;;;;;;6.97;1.90;;;;;;;25.12;35.96;99919.38;1772540;81;21358;-80
2023/06/01 14:11:45;;;;;;;4.03;1.98;;;;;;;25.19;36.28;99922.75;1773638;81;21303;-80
2023/06/01 14:14:51;;;;;;;12.50;2.15;;;;;;;25.27;36.83;99916.31;1773002;81;21296;-81
2023/06/01 14:17:57;;;;;;;4.37;1.98;;;;;;;25.32;37.29;99916.30;1774755;81;21311;-81
2023/06/01 14:21:03;;;;;;;4.40;1.85;;;;;;;25.28;36.99;99916.58;1774631;81;21303;-80
2023/06/01 14:24:09;;;;;;;6.22;1.90;;;;;;;25.22;36.89;99919.39;1773673;81;21617;-80
2023/06/01 14:27:15;;;;;;;3.87;1.70;;;;;;;25.17;36.34;99914.34;1774758;81;21898;-80
2023/06/01 14:30:20;;;;;;;5.45;2.02;;;;;;;25.19;36.95;99918.55;1774709;81;21286;-81
2023/06/01 14:33:25;;;;;;;7.28;2.12;;;;;;;25.24;36.26;99917.14;1773280;81;21319;-81